createdAt,value
2017-11-26T00:01:25.439Z,20.13
2017-11-26T00:03:54.921Z,20.70
2017-11-26T00:06:23.712Z,22.50
2017-11-26T00:08:51.783Z,21.90
2017-11-26T00:11:19.957Z,20.73
2017-11-26T00:13:48.028Z,23.03
2017-11-26T00:16:16.175Z,20.13
2017-11-26T00:18:44.243Z,20.33
2017-11-26T00:21:13.447Z,20.53
2017-11-26T00:23:42.132Z,21.63
2017-11-26T00:26:10.762Z,22.30
2017-11-26T00:28:39.731Z,25.90
2017-11-26T00:31:07.880Z,23.60
2017-11-26T00:33:36.130Z,22.43
2017-11-26T00:36:04.155Z,23.40
2017-11-26T00:38:32.341Z,23.53
2017-11-26T00:41:00.497Z,22.70
2017-11-26T00:43:31.654Z,24.27
2017-11-26T00:46:00.130Z,22.37
2017-11-26T00:48:29.335Z,23.20
2017-11-26T00:50:57.396Z,23.90
2017-11-26T00:53:25.413Z,24.10
2017-11-26T00:55:53.506Z,22.50
2017-11-26T00:58:22.142Z,23.10
2017-11-26T01:00:51.281Z,23.90
2017-11-26T01:03:19.302Z,23.97
2017-11-26T01:05:47.353Z,24.93
2017-11-26T01:08:15.846Z,25.47
2017-11-26T01:10:44.086Z,24.20
2017-11-26T01:13:12.371Z,24.53
2017-11-26T01:15:40.995Z,24.00
2017-11-26T01:18:09.462Z,24.17
2017-11-26T01:20:38.016Z,24.63
2017-11-26T01:23:06.065Z,23.00
2017-11-26T01:25:34.143Z,21.77
2017-11-26T01:28:02.444Z,24.97
2017-11-26T01:30:31.757Z,23.13
2017-11-26T01:32:59.991Z,21.47
2017-11-26T01:35:29.328Z,21.40
2017-11-26T01:37:57.286Z,22.37
2017-11-26T01:40:26.688Z,22.03
2017-11-26T01:42:55.117Z,19.10
2017-11-26T01:45:23.572Z,21.50
2017-11-26T01:47:52.118Z,19.10
2017-11-26T01:50:20.932Z,21.70
2017-11-26T01:52:49.551Z,21.10
2017-11-26T01:55:19.140Z,23.17
2017-11-26T01:57:47.832Z,20.70
2017-11-26T02:00:16.582Z,21.90
2017-11-26T02:02:45.302Z,20.53
2017-11-26T02:05:14.055Z,19.07
2017-11-26T02:07:42.166Z,20.37
2017-11-26T02:10:10.179Z,19.37
2017-11-26T02:12:38.239Z,19.47
2017-11-26T02:15:06.425Z,19.93
2017-11-26T02:17:34.531Z,18.90
2017-11-26T02:20:02.673Z,19.97
2017-11-26T02:22:30.847Z,19.23
2017-11-26T02:24:59.234Z,17.10
2017-11-26T02:27:27.290Z,17.40
2017-11-26T02:29:55.285Z,18.07
2017-11-26T02:32:35.192Z,20.10
2017-11-26T02:35:15.147Z,16.87
2017-11-26T02:37:43.211Z,18.13
2017-11-26T02:40:11.234Z,18.43
2017-11-26T02:42:39.235Z,17.63
2017-11-26T02:45:07.228Z,19.30
2017-11-26T02:47:35.337Z,17.53
2017-11-26T02:50:03.273Z,17.40
2017-11-26T02:52:31.237Z,17.80
2017-11-26T02:54:59.241Z,18.50
2017-11-26T02:57:27.174Z,16.60
2017-11-26T02:59:55.409Z,17.90
2017-11-26T03:02:23.436Z,16.23
2017-11-26T03:04:51.438Z,18.27
2017-11-26T03:07:19.427Z,16.73
2017-11-26T03:09:47.489Z,15.00
2017-11-26T03:12:15.501Z,15.37
2017-11-26T03:14:43.535Z,16.40
2017-11-26T03:17:11.685Z,16.23
2017-11-26T03:19:39.634Z,15.57
2017-11-26T03:22:07.615Z,16.57
2017-11-26T03:24:36.015Z,15.43
2017-11-26T03:27:04.609Z,16.03
2017-11-26T03:29:32.681Z,14.80
2017-11-26T03:32:00.663Z,15.10
2017-11-26T03:34:28.829Z,15.60
2017-11-26T03:36:57.629Z,14.90
2017-11-26T03:39:25.691Z,16.83
2017-11-26T03:41:53.711Z,16.27
2017-11-26T03:44:21.840Z,15.63
2017-11-26T03:46:49.857Z,15.97
2017-11-26T03:49:17.887Z,16.47
2017-11-26T03:51:45.945Z,16.90
2017-11-26T03:54:14.156Z,16.60
2017-11-26T03:56:42.864Z,16.40
2017-11-26T03:59:10.891Z,16.80
2017-11-26T04:01:38.938Z,16.00
2017-11-26T04:04:07.111Z,16.60
2017-11-26T04:06:35.443Z,16.30
2017-11-26T04:09:03.505Z,17.60
2017-11-26T04:11:31.965Z,18.20
2017-11-26T04:14:00.268Z,18.23
2017-11-26T04:16:28.623Z,18.83
2017-11-26T04:18:56.933Z,19.03
2017-11-26T04:21:26.385Z,18.13
2017-11-26T04:23:54.939Z,20.27
2017-11-26T04:26:23.059Z,18.50
2017-11-26T04:28:51.218Z,20.30
2017-11-26T04:31:19.440Z,20.23
2017-11-26T04:33:47.522Z,18.90
2017-11-26T04:36:15.505Z,18.57
2017-11-26T04:38:44.096Z,21.37
2017-11-26T04:41:13.228Z,22.07
2017-11-26T04:43:42.077Z,20.30
2017-11-26T04:46:10.176Z,21.00
2017-11-26T04:48:38.221Z,20.73
2017-11-26T04:51:06.840Z,20.00
2017-11-26T04:53:35.008Z,20.07
2017-11-26T04:56:03.007Z,18.87
2017-11-26T04:58:31.166Z,21.57
2017-11-26T05:00:59.253Z,21.17
2017-11-26T05:03:27.370Z,19.00
2017-11-26T05:05:55.367Z,19.30
2017-11-26T05:08:23.304Z,21.07
2017-11-26T05:10:51.279Z,18.80
2017-11-26T05:13:19.309Z,18.80
2017-11-26T05:15:47.375Z,18.23
2017-11-26T05:18:15.392Z,18.90
2017-11-26T05:20:43.463Z,16.90
2017-11-26T05:23:12.080Z,18.40
2017-11-26T05:25:40.069Z,19.80
2017-11-26T05:28:08.122Z,17.70
2017-11-26T05:30:36.186Z,19.77
2017-11-26T05:33:04.163Z,18.10
2017-11-26T05:35:32.199Z,18.90
2017-11-26T05:38:00.310Z,18.63
2017-11-26T05:40:28.298Z,18.73
2017-11-26T05:42:56.417Z,19.70
2017-11-26T05:45:24.418Z,18.83
2017-11-26T05:47:52.525Z,19.23
2017-11-26T05:50:20.531Z,19.80
2017-11-26T05:52:48.594Z,19.40
2017-11-26T05:55:16.662Z,20.17
2017-11-26T05:57:44.740Z,19.87
2017-11-26T06:00:12.780Z,19.03
2017-11-26T06:02:40.776Z,21.13
2017-11-26T06:05:08.768Z,20.30
2017-11-26T06:07:36.724Z,19.97
2017-11-26T06:10:04.666Z,19.97
2017-11-26T06:12:32.703Z,20.10
2017-11-26T06:15:00.698Z,20.40
2017-11-26T06:17:28.768Z,20.53
2017-11-26T06:19:56.831Z,20.03
2017-11-26T06:22:24.918Z,20.27
2017-11-26T06:24:52.991Z,20.80
2017-11-26T06:27:21.036Z,18.23
2017-11-26T06:29:49.106Z,17.93
2017-11-26T06:32:17.098Z,17.93
2017-11-26T06:34:45.106Z,19.07
2017-11-26T06:37:13.755Z,19.20
2017-11-26T06:39:42.360Z,17.77
2017-11-26T06:42:10.957Z,17.63
2017-11-26T06:44:39.038Z,18.47
2017-11-26T06:47:07.041Z,18.37
2017-11-26T06:49:35.311Z,18.70
2017-11-26T06:52:03.296Z,17.60
2017-11-26T06:54:33.057Z,17.57
2017-11-26T06:57:01.197Z,16.23
2017-11-26T06:59:29.351Z,16.30
2017-11-26T07:01:57.386Z,17.40
2017-11-26T07:04:25.392Z,16.20
2017-11-26T07:06:53.363Z,15.90
2017-11-26T07:09:21.339Z,15.20
2017-11-26T07:11:49.560Z,15.60
2017-11-26T07:14:17.636Z,14.57
2017-11-26T07:16:45.704Z,14.83
2017-11-26T07:19:14.436Z,15.33
2017-11-26T07:21:42.584Z,14.60
2017-11-26T07:24:10.698Z,14.10
2017-11-26T07:26:38.694Z,15.53
2017-11-26T07:29:06.890Z,15.30
2017-11-26T07:31:34.828Z,14.27
2017-11-26T07:34:02.853Z,15.10
2017-11-26T07:36:30.962Z,15.37
2017-11-26T07:38:58.917Z,14.87
2017-11-26T07:41:26.951Z,12.83
2017-11-26T07:43:55.211Z,13.33
2017-11-26T07:46:23.840Z,13.00
2017-11-26T07:48:51.846Z,13.40
2017-11-26T07:51:19.932Z,14.00
2017-11-26T07:53:47.964Z,13.90
2017-11-26T07:56:15.996Z,13.17
2017-11-26T07:58:44.044Z,13.93
2017-11-26T08:01:12.569Z,14.63
2017-11-26T08:03:40.643Z,14.80
2017-11-26T08:06:08.712Z,14.80
2017-11-26T08:08:36.817Z,14.43
2017-11-26T08:11:04.852Z,13.87
2017-11-26T08:13:32.851Z,14.30
2017-11-26T08:16:00.856Z,15.17
2017-11-26T08:18:31.900Z,15.47
2017-11-26T08:20:59.899Z,15.13
2017-11-26T08:23:28.735Z,14.00
2017-11-26T08:25:56.810Z,16.07
2017-11-26T08:28:25.723Z,14.90
2017-11-26T08:30:53.900Z,14.00
2017-11-26T08:33:21.935Z,14.20
2017-11-26T08:35:49.943Z,13.77
2017-11-26T08:38:17.948Z,14.33
2017-11-26T08:40:45.947Z,14.20
2017-11-26T08:43:13.947Z,14.43
2017-11-26T08:45:41.925Z,15.10
2017-11-26T08:48:10.035Z,15.00
2017-11-26T08:50:38.073Z,12.73
2017-11-26T08:53:06.046Z,14.70
2017-11-26T08:55:34.072Z,14.47
2017-11-26T08:58:02.088Z,14.10
2017-11-26T09:00:30.283Z,13.70
2017-11-26T09:02:58.699Z,14.67
2017-11-26T09:05:27.815Z,14.30
2017-11-26T09:08:05.741Z,13.30
2017-11-26T09:10:33.807Z,13.90
2017-11-26T09:13:01.817Z,13.60
2017-11-26T09:15:30.119Z,15.37
2017-11-26T09:17:58.651Z,14.20
2017-11-26T09:20:27.315Z,15.10
2017-11-26T09:22:55.342Z,12.40
2017-11-26T09:25:23.469Z,14.97
2017-11-26T09:27:54.877Z,13.97
2017-11-26T09:30:22.862Z,14.50
2017-11-26T09:32:51.277Z,15.00
2017-11-26T09:35:19.433Z,13.67
2017-11-26T09:37:48.856Z,16.43
2017-11-26T09:40:17.001Z,14.20
2017-11-26T09:42:45.246Z,14.43
2017-11-26T09:45:13.258Z,15.17
2017-11-26T09:47:41.329Z,16.77
2017-11-26T09:50:09.709Z,16.10
2017-11-26T09:52:40.285Z,13.93
2017-11-26T09:55:12.392Z,17.17
2017-11-26T09:57:40.778Z,15.07
2017-11-26T10:00:08.768Z,16.10
2017-11-26T10:02:36.775Z,16.47
2017-11-26T10:05:05.733Z,16.70
2017-11-26T10:07:33.914Z,14.93
2017-11-26T10:10:01.956Z,17.37
2017-11-26T10:12:29.981Z,16.77
2017-11-26T10:14:58.066Z,17.60
2017-11-26T10:17:26.137Z,16.73
2017-11-26T10:19:54.887Z,17.03
2017-11-26T10:22:22.931Z,17.90
2017-11-26T10:24:50.863Z,17.13
2017-11-26T10:27:19.687Z,17.77
2017-11-26T10:29:47.716Z,16.10
2017-11-26T10:32:16.145Z,16.27
2017-11-26T10:34:44.113Z,15.67
2017-11-26T10:37:12.311Z,18.00
2017-11-26T10:39:40.286Z,17.13
2017-11-26T10:42:08.254Z,18.03
2017-11-26T10:44:36.193Z,18.00
2017-11-26T10:47:04.301Z,18.03
2017-11-26T10:49:32.255Z,17.10
2017-11-26T10:52:00.326Z,16.50
2017-11-26T10:54:28.540Z,18.10
2017-11-26T10:56:57.235Z,18.30
2017-11-26T10:59:25.340Z,16.80
2017-11-26T11:01:53.346Z,16.70
2017-11-26T11:04:21.359Z,18.30
2017-11-26T11:06:49.390Z,16.40
2017-11-26T11:09:18.128Z,19.60
2017-11-26T11:11:48.004Z,15.50
2017-11-26T11:14:16.027Z,18.27
2017-11-26T11:16:43.990Z,17.80
2017-11-26T11:19:12.371Z,16.57
2017-11-26T11:21:40.363Z,16.90
2017-11-26T11:24:08.321Z,16.13
2017-11-26T11:26:36.281Z,16.77
2017-11-26T11:29:04.424Z,16.70
2017-11-26T11:31:32.436Z,15.60
2017-11-26T11:34:01.122Z,17.40
2017-11-26T11:36:29.082Z,15.40
2017-11-26T11:38:57.108Z,15.80
2017-11-26T11:41:25.702Z,17.33
2017-11-26T11:43:53.737Z,16.93
2017-11-26T11:46:21.906Z,17.77
2017-11-26T11:48:50.939Z,15.70
2017-11-26T11:51:19.190Z,15.90
2017-11-26T11:53:47.209Z,15.43
2017-11-26T11:56:15.996Z,15.23
2017-11-26T11:58:44.192Z,14.67
2017-11-26T12:01:12.281Z,15.20
2017-11-26T12:03:40.724Z,15.10
2017-11-26T12:06:08.713Z,12.70
2017-11-26T12:08:36.758Z,15.03
2017-11-26T12:11:04.876Z,13.57
2017-11-26T12:13:34.053Z,14.00
2017-11-26T12:16:02.066Z,13.63
2017-11-26T12:18:30.124Z,11.93
2017-11-26T12:20:58.789Z,14.17
2017-11-26T12:23:27.238Z,12.77
2017-11-26T12:25:55.216Z,13.30
2017-11-26T12:28:23.312Z,11.97
2017-11-26T12:30:51.363Z,11.80
2017-11-26T12:33:19.317Z,12.23
2017-11-26T12:35:47.329Z,12.53
2017-11-26T12:38:15.613Z,11.80
2017-11-26T12:40:43.670Z,11.67
2017-11-26T12:43:11.632Z,12.10
2017-11-26T12:45:39.883Z,10.97
2017-11-26T12:48:08.698Z,12.60
2017-11-26T12:50:36.712Z,11.97
2017-11-26T12:53:04.706Z,12.20
2017-11-26T12:55:32.680Z,11.70
2017-11-26T12:58:00.916Z,12.47
2017-11-26T13:00:29.783Z,11.77
2017-11-26T13:02:57.864Z,12.33
2017-11-26T13:05:25.846Z,12.97
2017-11-26T13:07:53.920Z,11.90
2017-11-26T13:10:22.172Z,10.70
2017-11-26T13:12:50.201Z,11.10
2017-11-26T13:15:18.244Z,11.07
2017-11-26T13:17:46.294Z,9.97
2017-11-26T13:20:14.355Z,9.63
2017-11-26T13:22:42.366Z,11.33
2017-11-26T13:25:11.737Z,10.87
2017-11-26T13:27:39.801Z,10.80
2017-11-26T13:30:07.838Z,10.43
2017-11-26T13:32:35.834Z,11.40
2017-11-26T13:35:04.483Z,10.20
2017-11-26T13:37:32.517Z,10.47
2017-11-26T13:40:02.227Z,10.80
2017-11-26T13:42:30.415Z,10.00
2017-11-26T13:44:58.510Z,10.20
2017-11-26T13:47:26.477Z,9.90
2017-11-26T13:49:54.501Z,9.60
2017-11-26T13:52:22.482Z,9.70
2017-11-26T13:54:50.584Z,9.10
2017-11-26T13:57:26.880Z,9.70
2017-11-26T13:59:55.030Z,10.33
2017-11-26T14:02:23.038Z,9.93
2017-11-26T14:04:51.689Z,10.40
2017-11-26T14:07:20.071Z,9.50
2017-11-26T14:09:48.089Z,9.90
2017-11-26T14:12:16.105Z,8.53
2017-11-26T14:14:44.146Z,10.57
2017-11-26T14:17:12.195Z,9.07
2017-11-26T14:19:40.818Z,10.33
2017-11-26T14:22:08.887Z,11.57
2017-11-26T14:24:36.954Z,10.77
2017-11-26T14:27:04.979Z,11.50
2017-11-26T14:29:32.991Z,10.17
2017-11-26T14:32:01.007Z,11.50
2017-11-26T14:34:29.030Z,11.40
2017-11-26T14:36:57.717Z,9.07
2017-11-26T14:39:25.686Z,10.93
2017-11-26T14:41:53.686Z,10.23
2017-11-26T14:44:21.699Z,9.80
2017-11-26T14:46:49.665Z,10.27
2017-11-26T14:49:17.655Z,10.10
2017-11-26T14:51:45.628Z,10.73
2017-11-26T14:54:13.633Z,11.37
2017-11-26T14:56:41.641Z,10.80
2017-11-26T14:59:09.605Z,10.00
2017-11-26T15:01:37.540Z,10.00
2017-11-26T15:04:05.536Z,9.40
2017-11-26T15:06:33.557Z,10.37
2017-11-26T15:09:01.465Z,9.43
2017-11-26T15:11:29.400Z,9.50
2017-11-26T15:13:57.344Z,8.87
2017-11-26T15:16:25.296Z,9.23
2017-11-26T15:18:53.255Z,7.93
2017-11-26T15:21:21.230Z,9.70
2017-11-26T15:23:49.757Z,8.93
2017-11-26T15:26:17.702Z,9.70
2017-11-26T15:28:45.712Z,9.70
2017-11-26T15:31:13.753Z,11.10
2017-11-26T15:33:41.706Z,9.20
2017-11-26T15:36:09.624Z,9.10
2017-11-26T15:38:37.820Z,9.93
2017-11-26T15:41:05.859Z,8.73
2017-11-26T15:43:33.782Z,11.40
2017-11-26T15:46:02.004Z,9.90
2017-11-26T15:48:30.031Z,10.07
2017-11-26T15:50:57.993Z,9.90
2017-11-26T15:53:25.988Z,11.30
2017-11-26T15:55:53.994Z,11.00
2017-11-26T15:58:21.976Z,9.27
2017-11-26T16:00:50.093Z,10.60
2017-11-26T16:03:18.865Z,9.70
2017-11-26T16:05:46.846Z,8.63
2017-11-26T16:08:14.820Z,10.90
2017-11-26T16:10:42.756Z,9.87
2017-11-26T16:13:11.727Z,9.47
2017-11-26T16:15:39.691Z,9.90
2017-11-26T16:18:07.643Z,8.80
2017-11-26T16:20:35.615Z,9.73
2017-11-26T16:23:03.705Z,8.57
2017-11-26T16:25:31.679Z,9.00
2017-11-26T16:27:59.623Z,8.67
2017-11-26T16:30:27.565Z,9.30
2017-11-26T16:32:55.479Z,8.77
2017-11-26T16:35:23.512Z,8.23
2017-11-26T16:37:51.970Z,9.10
2017-11-26T16:40:19.900Z,8.23
2017-11-26T16:42:47.899Z,8.70
2017-11-26T16:45:15.839Z,9.57
2017-11-26T16:47:43.802Z,9.10
2017-11-26T16:50:12.545Z,9.13
2017-11-26T16:52:40.540Z,9.37
2017-11-26T16:55:08.677Z,10.10
2017-11-26T16:57:36.614Z,9.20
2017-11-26T17:00:04.608Z,8.10
2017-11-26T17:02:32.548Z,9.30
2017-11-26T17:05:00.591Z,8.30
2017-11-26T17:07:28.515Z,8.90
2017-11-26T17:09:56.470Z,10.33
2017-11-26T17:12:24.749Z,9.20
2017-11-26T17:14:52.909Z,9.23
2017-11-26T17:17:29.166Z,8.40
2017-11-26T17:19:57.337Z,9.90
2017-11-26T17:22:25.277Z,9.93
2017-11-26T17:24:53.195Z,9.30
2017-11-26T17:27:21.137Z,8.93
2017-11-26T17:29:49.865Z,8.90
2017-11-26T17:32:17.818Z,9.60
2017-11-26T17:34:45.807Z,8.20
2017-11-26T17:37:14.515Z,9.77
2017-11-26T17:39:42.638Z,7.60
2017-11-26T17:42:11.378Z,14.40
2017-11-26T17:44:39.365Z,15.10
2017-11-26T17:47:09.220Z,8.07
2017-11-26T17:49:39.089Z,11.23
2017-11-26T17:52:07.146Z,8.63
2017-11-26T17:54:37.820Z,9.10
2017-11-26T17:57:05.970Z,8.53
2017-11-26T17:59:38.500Z,8.80
2017-11-26T18:02:12.305Z,9.80
2017-11-26T18:04:40.502Z,8.80
2017-11-26T18:07:08.471Z,8.97
2017-11-26T18:09:36.491Z,9.10
2017-11-26T18:12:04.480Z,8.40
2017-11-26T18:14:32.470Z,7.60
2017-11-26T18:17:00.498Z,8.67
2017-11-26T18:19:28.594Z,11.00
2017-11-26T18:21:57.084Z,9.17
2017-11-26T18:24:25.061Z,6.90
2017-11-26T18:26:53.392Z,7.17
2017-11-26T18:29:21.439Z,6.47
2017-11-26T18:31:49.509Z,6.60
2017-11-26T18:34:18.385Z,6.50
2017-11-26T18:36:46.423Z,6.83
2017-11-26T18:39:15.733Z,8.07
2017-11-26T18:41:44.003Z,5.90
2017-11-26T18:44:12.491Z,6.43
2017-11-26T18:46:40.659Z,6.30
2017-11-26T18:49:09.702Z,6.63
2017-11-26T18:51:37.768Z,6.10
2017-11-26T18:54:05.809Z,6.27
2017-11-26T18:56:36.269Z,5.87
2017-11-26T18:59:05.830Z,5.43
2017-11-26T19:01:34.738Z,7.57
2017-11-26T19:04:03.490Z,6.63
2017-11-26T19:06:31.617Z,6.33
2017-11-26T19:08:59.722Z,5.80
2017-11-26T19:11:27.701Z,5.90
2017-11-26T19:13:57.902Z,6.47
2017-11-26T19:16:28.534Z,5.63
2017-11-26T19:18:56.524Z,6.60
2017-11-26T19:21:24.672Z,6.40
2017-11-26T19:23:53.651Z,5.97
2017-11-26T19:26:22.589Z,6.93
2017-11-26T19:28:50.612Z,6.47
2017-11-26T19:31:19.414Z,6.10
2017-11-26T19:33:47.987Z,5.57
2017-11-26T19:36:15.930Z,5.47
2017-11-26T19:38:43.917Z,5.30
2017-11-26T19:41:11.836Z,5.80
2017-11-26T19:43:39.803Z,4.93
2017-11-26T19:46:07.814Z,5.10
2017-11-26T19:48:35.757Z,4.67
2017-11-26T19:51:03.782Z,4.87
2017-11-26T19:53:32.962Z,4.47
2017-11-26T19:56:00.947Z,4.60
2017-11-26T19:58:38.820Z,4.50
2017-11-26T20:01:06.761Z,4.77
2017-11-26T20:03:34.720Z,4.87
2017-11-26T20:06:02.713Z,4.60
2017-11-26T20:08:30.689Z,4.67
2017-11-26T20:10:58.656Z,6.73
2017-11-26T20:13:26.637Z,4.80
2017-11-26T20:15:54.616Z,4.60
2017-11-26T20:18:23.411Z,5.00
2017-11-26T20:20:51.348Z,5.30
2017-11-26T20:23:19.388Z,6.13
2017-11-26T20:25:48.217Z,5.83
2017-11-26T20:28:16.285Z,5.50
2017-11-26T20:30:44.193Z,5.80
2017-11-26T20:33:12.144Z,5.50
2017-11-26T20:35:40.162Z,6.03
2017-11-26T20:38:08.817Z,5.27
2017-11-26T20:40:36.732Z,4.83
2017-11-26T20:43:04.744Z,5.33
2017-11-26T20:45:32.928Z,5.23
2017-11-26T20:48:00.927Z,5.90
2017-11-26T20:50:28.953Z,6.30
2017-11-26T20:52:56.943Z,5.50
2017-11-26T20:55:24.919Z,5.57
2017-11-26T20:57:53.837Z,6.03
2017-11-26T21:00:21.802Z,5.60
2017-11-26T21:02:49.920Z,6.90
2017-11-26T21:05:18.741Z,6.70
2017-11-26T21:07:47.040Z,4.77
2017-11-26T21:10:15.132Z,4.47
2017-11-26T21:12:43.086Z,5.43
2017-11-26T21:15:12.028Z,4.50
2017-11-26T21:17:39.992Z,5.40
2017-11-26T21:20:08.580Z,5.17
2017-11-26T21:22:36.567Z,5.00
2017-11-26T21:25:04.481Z,4.60
2017-11-26T21:27:32.765Z,4.30
2017-11-26T21:30:00.702Z,4.53
2017-11-26T21:32:29.291Z,6.00
2017-11-26T21:34:57.237Z,4.93
2017-11-26T21:37:25.205Z,4.70
2017-11-26T21:39:53.175Z,4.30
2017-11-26T21:42:21.297Z,3.63
2017-11-26T21:44:49.376Z,3.80
2017-11-26T21:47:17.535Z,5.47
2017-11-26T21:49:45.628Z,4.33
2017-11-26T21:52:13.576Z,5.17
2017-11-26T21:54:42.169Z,5.67
2017-11-26T21:57:10.179Z,5.00
2017-11-26T21:59:38.852Z,5.50
2017-11-26T22:02:07.686Z,6.10
2017-11-26T22:04:36.815Z,5.70
2017-11-26T22:07:05.524Z,6.07
2017-11-26T22:09:33.544Z,6.97
2017-11-26T22:12:01.692Z,6.53
2017-11-26T22:14:29.662Z,7.63
2017-11-26T22:16:57.660Z,7.03
2017-11-26T22:19:25.763Z,7.70
2017-11-26T22:21:53.980Z,6.70
2017-11-26T22:24:22.123Z,7.97
2017-11-26T22:26:50.164Z,7.07
2017-11-26T22:29:18.084Z,7.50
2017-11-26T22:31:46.100Z,7.73
2017-11-26T22:34:14.113Z,7.50
2017-11-26T22:36:42.127Z,7.57
2017-11-26T22:39:11.482Z,8.10
2017-11-26T22:41:39.462Z,8.37
2017-11-26T22:44:07.487Z,8.00
2017-11-26T22:46:35.477Z,7.40
2017-11-26T22:49:03.510Z,7.00
2017-11-26T22:51:31.470Z,7.47
2017-11-26T22:53:59.467Z,6.47
2017-11-26T22:56:27.829Z,5.50
2017-11-26T22:58:56.349Z,5.43
2017-11-26T23:01:24.378Z,4.37
2017-11-26T23:03:52.372Z,3.67
2017-11-26T23:06:20.386Z,3.40
2017-11-26T23:08:48.456Z,3.47
2017-11-26T23:11:16.424Z,3.60
2017-11-26T23:13:45.740Z,3.13
2017-11-26T23:16:14.090Z,2.00
2017-11-26T23:18:42.088Z,2.43
2017-11-26T23:21:10.636Z,2.20
2017-11-26T23:23:38.757Z,2.30
2017-11-26T23:26:07.039Z,2.23
2017-11-26T23:28:35.207Z,2.43
2017-11-26T23:31:03.482Z,2.40
2017-11-26T23:33:31.484Z,2.30
2017-11-26T23:35:59.604Z,1.93
2017-11-26T23:38:27.592Z,2.37
2017-11-26T23:40:56.419Z,1.97
2017-11-26T23:43:24.490Z,2.20
2017-11-26T23:45:52.684Z,2.33
2017-11-26T23:48:20.856Z,2.43
2017-11-26T23:50:49.040Z,3.50
2017-11-26T23:53:20.178Z,3.43
2017-11-26T23:55:48.196Z,3.77
2017-11-26T23:58:16.151Z,4.50
